Time;durP1;ratioP1;P1;durP2;ratioP2;P2;SDS_P1;SDS_P2;PMS_P1;PMS_P2;Temp;Humidity;BMP_temperature;BMP_pressure;BME280_temperature;BME280_humidity;BME280_pressure;Samples;Min_cycle;Max_cycle;Signal;HPM_P1;HPM_P2
2022/07/10 07:11:05;;;;;;;;;;;;;;;25.29;47.80;97336.47;4239304;27;10334;-74
2022/07/10 07:13:09;;;;;;;;;;;;;;;25.52;47.33;97330.44;4217329;28;5758;-74
2022/07/10 07:15:12;;;;;;;;;;;;;;;25.71;46.74;97327.13;4232382;28;5758;-75
2022/07/10 07:17:21;;;;;;;;;;;;;;;25.84;46.73;97321.13;4235354;28;5671;-74
2022/07/10 07:19:30;;;;;;;;;;;;;;;25.93;46.63;97327.56;4234429;28;5872;-76
2022/07/10 07:24:08;;;;;;;;;;;;;;;26.01;46.39;97318.88;4186554;28;5817;-74
2022/07/10 07:26:13;;;;;;;;;;;;;;;26.05;46.25;97328.06;4196925;28;5746;-74
2022/07/10 07:28:17;;;;;;;;;;;;;;;26.04;46.04;97312.88;4190696;28;5754;-75
2022/07/10 07:30:20;;;;;;;;;;;;;;;26.06;45.71;97318.06;4170790;28;5826;-75
2022/07/10 07:32:23;;;;;;;;;;;;;;;26.05;46.00;97317.25;4195222;28;5749;-75
2022/07/10 07:34:26;;;;;;;;;;;;;;;26.07;45.71;97314.25;4192317;28;6056;-75
2022/07/10 07:36:30;;;;;;;;;;;;;;;26.02;45.65;97317.78;4193699;28;5893;-75
2022/07/10 07:38:33;;;;;;;;;;;;;;;26.01;45.82;97313.44;4190353;28;5881;-74
2022/07/10 07:40:37;;;;;;;;;;;;;;;26.00;45.98;97317.25;4183010;28;5751;-74
2022/07/10 07:42:41;;;;;;;;;;;;;;;25.97;46.05;97322.44;4178928;28;5851;-75
2022/07/10 07:44:44;;;;;;;;;;;;;;;25.96;45.75;97321.63;4185595;28;5857;-75
2022/07/10 07:46:48;;;;;;;;;;;;;;;25.92;46.07;97315.13;4195569;28;5738;-75
2022/07/10 07:48:51;;;;;;;;;;;;;;;25.89;46.05;97317.59;4188394;28;5780;-75
2022/07/10 07:50:54;;;;;;;;;;;;;;;25.85;46.01;97317.34;4191435;28;5765;-74
2022/07/10 07:52:56;;;;;;;;;;;;;;;25.81;45.93;97313.56;4178663;28;5775;-75
2022/07/10 07:54:59;;;;;;;;;;;;;;;25.79;45.72;97318.44;4201119;28;5869;-75
2022/07/10 07:57:03;;;;;;;;;;;;;;;25.73;45.53;97316.84;4225719;28;5761;-74
2022/07/10 07:59:07;;;;;;;;;;;;;;;25.67;45.83;97317.94;4218182;28;5783;-74
2022/07/10 08:01:10;;;;;;;;;;;;;;;25.64;45.67;97307.66;4223304;28;5834;-75
2022/07/10 08:03:13;;;;;;;;;;;;;;;25.65;45.67;97306.56;4224227;28;5811;-75
2022/07/10 08:05:16;;;;;;;;;;;;;;;25.64;45.68;97310.38;4226111;28;5783;-75
2022/07/10 08:07:19;;;;;;;;;;;;;;;25.55;45.50;97307.41;4230475;28;5675;-75
2022/07/10 08:09:22;;;;;;;;;;;;;;;25.50;45.40;97308.25;4229296;28;5772;-75
2022/07/10 08:11:25;;;;;;;;;;;;;;;25.52;45.64;97299.84;4218575;28;5668;-75
2022/07/10 08:13:28;;;;;;;;;;;;;;;25.54;45.47;97305.78;4212516;28;5109;-75
2022/07/10 08:15:34;;;;;;;;;;;;;;;25.54;45.47;97301.19;4208587;28;5878;-75
2022/07/10 08:17:39;;;;;;;;;;;;;;;25.55;45.40;97304.69;4210998;28;5688;-74
2022/07/10 08:19:42;;;;;;;;;;;;;;;25.57;45.36;97305.22;4216575;28;6493;-75
2022/07/10 08:21:45;;;;;;;;;;;;;;;25.59;45.20;97303.06;4219910;28;5671;-75
2022/07/10 08:23:48;;;;;;;;;;;;;;;25.57;45.22;97297.13;4210679;28;5890;-77
2022/07/10 08:25:51;;;;;;;;;;;;;;;25.51;45.23;97296.34;4201247;28;6054;-72
2022/07/10 08:27:54;;;;;;;;;;;;;;;25.44;45.51;97290.41;4212320;28;5679;-72
2022/07/10 08:29:57;;;;;;;;;;;;;;;25.35;45.72;97293.94;4209392;28;5693;-72
2022/07/10 08:32:01;;;;;;;;;;;;;;;25.29;46.35;97293.16;4212615;28;5675;-74
2022/07/10 08:34:04;;;;;;;;;;;;;;;25.29;46.51;97293.16;4218169;28;5687;-73
2022/07/10 08:36:07;;;;;;;;;;;;;;;25.31;46.06;97285.56;4214425;28;5687;-72
2022/07/10 08:38:30;;;;;;;;;;;;;;;25.33;46.45;97291.50;4202858;28;5696;-76
2022/07/10 08:40:37;;;;;;;;;;;;;;;25.33;46.40;97290.72;4215688;28;5778;-76
2022/07/10 08:42:40;;;;;;;;;;;;;;;25.34;45.95;97287.72;4216533;28;6009;-76
2022/07/10 08:44:44;;;;;;;;;;;;;;;25.34;46.24;97292.31;4218251;28;5814;-75
2022/07/10 08:46:47;;;;;;;;;;;;;;;25.35;46.18;97292.03;4218583;28;5849;-75
2022/07/10 08:48:54;;;;;;;;;;;;;;;25.35;46.10;97286.63;4218162;28;5667;-75
2022/07/10 08:51:00;;;;;;;;;;;;;;;25.36;45.94;97284.72;4218590;28;5692;-75
2022/07/10 08:53:09;;;;;;;;;;;;;;;25.39;45.99;97286.91;4215857;28;5855;-75
2022/07/10 08:55:14;;;;;;;;;;;;;;;25.39;46.26;97282.31;4214988;28;5679;-75
2022/07/10 08:57:19;;;;;;;;;;;;;;;25.39;46.15;97286.91;4217457;28;5647;-75
2022/07/10 08:59:23;;;;;;;;;;;;;;;25.40;46.14;97281.22;4217047;28;5798;-75
2022/07/10 09:01:33;;;;;;;;;;;;;;;25.44;46.00;97284.97;4214393;28;5679;-74
2022/07/10 09:03:37;;;;;;;;;;;;;;;25.47;45.41;97284.41;4218473;28;5755;-74
2022/07/10 09:05:43;;;;;;;;;;;;;;;25.51;45.57;97290.13;4218379;28;5675;-74
2022/07/10 09:07:46;;;;;;;;;;;;;;;25.54;45.37;97278.72;4217050;28;5782;-66
2022/07/10 09:09:54;;;;;;;;;;;;;;;25.59;45.23;97278.69;4216199;28;5684;-67
2022/07/10 09:11:58;;;;;;;;;;;;;;;25.66;45.19;97275.69;4218306;28;5675;-66
2022/07/10 09:14:04;;;;;;;;;;;;;;;25.71;44.78;97279.22;4204264;28;5941;-67
2022/07/10 09:16:07;;;;;;;;;;;;;;;25.76;44.34;97273.78;4201038;28;5697;-66
2022/07/10 09:18:10;;;;;;;;;;;;;;;25.81;44.69;97275.63;4210532;28;6094;-67
2022/07/10 09:20:25;;;;;;;;;;;;;;;25.86;44.31;97278.34;4218401;28;5682;-67
2022/07/10 09:22:36;;;;;;;;;;;;;;;25.91;44.01;97275.59;4215584;28;5684;-67
2022/07/10 09:24:40;;;;;;;;;;;;;;;25.98;43.27;97278.00;4212844;28;6491;-67
2022/07/10 09:26:44;;;;;;;;;;;;;;;26.02;43.29;97274.44;4216612;28;5683;-67
2022/07/10 09:28:53;;;;;;;;;;;;;;;26.04;43.06;97277.66;4218005;28;6828;-67
2022/07/10 09:30:57;;;;;;;;;;;;;;;26.10;42.88;97279.25;4218184;28;5674;-66
2022/07/10 09:33:19;;;;;;;;;;;;;;;26.12;42.94;97273.56;4218245;28;5679;-67
2022/07/10 09:37:44;;;;;;;;;;;;;;;26.19;42.50;97267.84;4218420;28;5687;-68
2022/07/10 09:39:58;;;;;;;;;;;;;;;26.24;42.17;97267.78;4218093;28;5680;-67
2022/07/10 09:42:01;;;;;;;;;;;;;;;26.32;42.10;97272.63;4218361;28;5664;-68
2022/07/10 09:44:07;;;;;;;;;;;;;;;26.34;41.80;97270.44;4218102;28;5665;-68
2022/07/10 09:46:10;;;;;;;;;;;;;;;26.38;42.04;97274.22;4218043;28;5672;-67
2022/07/10 09:48:17;;;;;;;;;;;;;;;26.40;41.59;97269.34;4217910;28;5692;-67
2022/07/10 09:50:24;;;;;;;;;;;;;;;26.43;41.80;97273.38;4217961;28;5680;-67
2022/07/10 09:52:28;;;;;;;;;;;;;;;26.45;41.20;97273.91;4218149;28;5676;-68
2022/07/10 09:54:32;;;;;;;;;;;;;;;26.46;41.39;97270.91;4218266;28;5911;-68
2022/07/10 09:56:43;;;;;;;;;;;;;;;26.45;41.18;97260.34;4218091;28;5775;-67
2022/07/10 09:58:50;;;;;;;;;;;;;;;26.47;40.90;97269.00;4217594;28;5807;-67
2022/07/10 10:00:55;;;;;;;;;;;;;;;26.52;40.59;97261.66;4210248;28;6406;-67
2022/07/10 10:03:01;;;;;;;;;;;;;;;26.59;40.47;97264.81;4200852;28;5792;-67
2022/07/10 10:05:06;;;;;;;;;;;;;;;26.63;40.25;97259.66;4200616;28;5806;-70
2022/07/10 10:07:12;;;;;;;;;;;;;;;26.63;40.26;97252.34;4201072;28;5678;-71
2022/07/10 10:09:23;;;;;;;;;;;;;;;26.66;40.35;97254.47;4200489;28;5708;-71
2022/07/10 10:11:29;;;;;;;;;;;;;;;26.72;40.00;97254.41;4200767;28;5704;-71
2022/07/10 10:13:35;;;;;;;;;;;;;;;26.74;39.77;97247.63;4199526;28;5791;-71
2022/07/10 10:15:39;;;;;;;;;;;;;;;26.74;39.56;97246.81;4200409;28;5684;-71
2022/07/10 10:17:42;;;;;;;;;;;;;;;26.78;39.21;97250.56;4200846;28;5804;-71
2022/07/10 10:22:09;;;;;;;;;;;;;;;26.87;39.03;97246.13;4200883;28;5700;-71
2022/07/10 10:24:18;;;;;;;;;;;;;;;26.93;38.63;97245.78;4200635;28;6510;-72
2022/07/10 10:26:23;;;;;;;;;;;;;;;26.94;38.63;97235.75;4200548;28;5776;-71
2022/07/10 10:28:28;;;;;;;;;;;;;;;26.93;38.66;97237.66;4200408;28;5704;-72
2022/07/10 10:30:32;;;;;;;;;;;;;;;26.97;38.37;97238.72;4200285;28;5796;-72
2022/07/10 10:32:40;;;;;;;;;;;;;;;27.02;38.18;97232.44;4200664;28;5696;-74
2022/07/10 10:34:44;;;;;;;;;;;;;;;27.03;38.05;97238.66;4200359;28;5700;-74
2022/07/10 10:36:49;;;;;;;;;;;;;;;27.04;37.76;97241.09;4200531;28;5693;-75
2022/07/10 10:39:02;;;;;;;;;;;;;;;27.05;37.54;97237.28;4199269;28;5783;-73
2022/07/10 10:41:26;;;;;;;;;;;;;;;27.07;37.28;97235.13;4200580;28;5705;-74
2022/07/10 10:43:30;;;;;;;;;;;;;;;27.15;36.91;97239.06;4200699;28;5741;-82
2022/07/10 10:45:35;;;;;;;;;;;;;;;27.16;36.91;97243.41;4200195;28;6465;-70
2022/07/10 10:47:59;;;;;;;;;;;;;;;27.15;36.82;97236.38;4200590;28;5689;-70
2022/07/10 10:50:37;;;;;;;;;;;;;;;27.18;36.42;97231.19;4200863;28;5787;-70
2022/07/10 10:53:01;;;;;;;;;;;;;;;27.18;36.45;97223.03;4200497;28;5680;-70
2022/07/10 10:55:09;;;;;;;;;;;;;;;27.22;36.58;97224.06;4200591;28;5058;-71
2022/07/10 10:57:15;;;;;;;;;;;;;;;27.28;36.39;97227.53;4200523;28;5799;-70
2022/07/10 10:59:46;;;;;;;;;;;;;;;27.30;36.24;97213.69;4200202;28;5680;-70
2022/07/10 11:02:22;;;;;;;;;;;;;;;27.33;36.14;97216.63;4209050;28;5766;-70
2022/07/10 11:04:25;;;;;;;;;;;;;;;27.33;35.86;97211.19;4200669;28;5748;-69
2022/07/10 11:06:40;;;;;;;;;;;;;;;27.32;35.86;97217.72;4198970;28;5701;-69
2022/07/10 11:08:44;;;;;;;;;;;;;;;27.31;35.93;97215.28;4200696;28;5685;-69
2022/07/10 11:10:47;;;;;;;;;;;;;;;27.31;35.67;97218.00;4199873;28;5686;-70
2022/07/10 11:13:00;;;;;;;;;;;;;;;27.33;35.44;97207.66;4200381;28;5716;-70
2022/07/10 11:15:08;;;;;;;;;;;;;;;27.38;35.28;97218.44;4200515;28;5681;-70
2022/07/10 11:17:12;;;;;;;;;;;;;;;27.36;35.46;97205.16;4200047;28;5768;-70
2022/07/10 11:19:24;;;;;;;;;;;;;;;27.38;35.25;97204.88;4200200;28;6200;-71
2022/07/10 11:21:27;;;;;;;;;;;;;;;27.46;35.28;97215.91;4200320;28;5721;-71
2022/07/10 11:23:57;;;;;;;;;;;;;;;27.49;35.10;97203.63;4200117;28;5812;-70
2022/07/10 11:26:08;;;;;;;;;;;;;;;27.50;35.03;97199.81;4200358;28;5812;-70
2022/07/10 11:28:12;;;;;;;;;;;;;;;27.51;34.61;97199.53;4200449;28;5705;-70
2022/07/10 11:30:16;;;;;;;;;;;;;;;27.54;34.52;97196.25;4199814;28;5701;-70
2022/07/10 11:32:19;;;;;;;;;;;;;;;27.60;34.41;97205.13;4199631;28;5795;-71
2022/07/10 11:34:23;;;;;;;;;;;;;;;27.65;34.14;97205.09;4198523;28;6432;-71
2022/07/10 11:36:29;;;;;;;;;;;;;;;27.70;34.20;97201.50;4200044;28;5763;-71
2022/07/10 11:38:32;;;;;;;;;;;;;;;27.68;34.11;97200.97;4199961;28;5713;-70
2022/07/10 11:40:37;;;;;;;;;;;;;;;27.66;33.85;97200.47;4199750;28;5700;-70
2022/07/10 11:42:51;;;;;;;;;;;;;;;27.68;33.47;97207.22;4199766;28;5791;-70
2022/07/10 11:44:54;;;;;;;;;;;;;;;27.70;33.41;97205.00;4199853;28;5700;-71
2022/07/10 11:46:59;;;;;;;;;;;;;;;27.70;33.46;97210.44;4201865;28;5708;-70
2022/07/10 11:49:05;;;;;;;;;;;;;;;27.71;33.21;97203.09;4203252;28;5752;-70
2022/07/10 11:51:17;;;;;;;;;;;;;;;27.72;33.21;97202.81;4203179;28;5677;-70
2022/07/10 11:53:24;;;;;;;;;;;;;;;27.79;33.32;97191.59;4203072;28;5700;-70
2022/07/10 11:55:31;;;;;;;;;;;;;;;27.81;33.05;97197.53;4203218;28;6419;-70
2022/07/10 11:57:44;;;;;;;;;;;;;;;27.85;32.94;97198.53;4201802;28;5845;-70
2022/07/10 11:59:47;;;;;;;;;;;;;;;27.90;32.91;97203.91;4202664;28;5767;-71
2022/07/10 12:01:53;;;;;;;;;;;;;;;27.93;32.81;97192.44;4208077;28;5672;-70
2022/07/10 12:04:00;;;;;;;;;;;;;;;27.96;32.56;97182.91;4207620;28;6967;-70
2022/07/10 12:06:07;;;;;;;;;;;;;;;27.95;32.70;97190.25;4202786;28;5697;-71
2022/07/10 12:08:13;;;;;;;;;;;;;;;27.98;32.66;97192.38;4202979;28;5701;-71
2022/07/10 12:10:16;;;;;;;;;;;;;;;28.00;32.75;97189.38;4214004;28;5818;-70
2022/07/10 12:12:24;;;;;;;;;;;;;;;28.01;32.57;97182.84;4219511;28;5667;-70
2022/07/10 12:14:28;;;;;;;;;;;;;;;28.04;32.16;97183.03;4219706;28;6353;-70
2022/07/10 12:16:36;;;;;;;;;;;;;;;28.07;32.31;97187.06;4219438;28;5675;-71
2022/07/10 12:18:41;;;;;;;;;;;;;;;28.04;32.29;97179.53;4219438;28;5675;-70
2022/07/10 12:20:49;;;;;;;;;;;;;;;28.05;32.09;97183.84;4219687;28;5754;-70
2022/07/10 12:22:53;;;;;;;;;;;;;;;28.04;32.23;97183.03;4219703;28;5784;-70
2022/07/10 12:24:56;;;;;;;;;;;;;;;28.07;31.96;97181.63;4219644;28;5848;-71
2022/07/10 12:26:59;;;;;;;;;;;;;;;28.05;32.15;97172.97;4219034;28;5671;-71
2022/07/10 12:29:03;;;;;;;;;;;;;;;28.11;31.96;97169.88;4217744;28;5791;-70
2022/07/10 12:31:06;;;;;;;;;;;;;;;28.17;31.48;97165.16;4218927;28;5749;-70
2022/07/10 12:33:10;;;;;;;;;;;;;;;28.17;31.35;97161.63;4219318;28;7729;-70
2022/07/10 12:35:15;;;;;;;;;;;;;;;28.19;31.48;97168.38;4219237;28;5687;-71
2022/07/10 12:37:20;;;;;;;;;;;;;;;28.22;31.35;97170.53;4219473;28;5743;-70
2022/07/10 12:39:25;;;;;;;;;;;;;;;28.24;31.32;97176.47;4219298;28;5739;-71
2022/07/10 12:41:28;;;;;;;;;;;;;;;28.27;30.96;97170.47;4219196;28;5722;-71
2022/07/10 12:43:31;;;;;;;;;;;;;;;28.26;30.98;97166.09;4219307;28;5679;-70
2022/07/10 12:45:34;;;;;;;;;;;;;;;28.22;31.00;97167.81;4217596;28;5686;-71
2022/07/10 12:47:45;;;;;;;;;;;;;;;28.24;31.09;97173.75;4219351;28;6840;-71
2022/07/10 12:49:53;;;;;;;;;;;;;;;28.29;30.93;97162.00;4219153;28;5739;-71
2022/07/10 12:51:56;;;;;;;;;;;;;;;28.31;30.81;97170.66;4219337;28;5765;-71
2022/07/10 12:54:37;;;;;;;;;;;;;;;28.33;30.32;97152.97;4219115;28;5756;-70
2022/07/10 12:56:40;;;;;;;;;;;;;;;28.33;30.39;97158.41;4218864;28;5715;-71
2022/07/10 12:58:45;;;;;;;;;;;;;;;28.29;29.98;97153.84;4219197;28;5671;-70
2022/07/10 13:00:49;;;;;;;;;;;;;;;28.26;30.30;97152.50;4215629;28;6519;-70
2022/07/10 13:02:59;;;;;;;;;;;;;;;28.29;30.37;97168.25;4214059;28;6626;-70
2022/07/10 13:05:03;;;;;;;;;;;;;;;28.33;30.21;97165.75;4218775;28;6368;-71
2022/07/10 13:07:14;;;;;;;;;;;;;;;28.35;30.28;97158.91;4218831;28;5672;-71
2022/07/10 13:09:21;;;;;;;;;;;;;;;28.32;30.23;97154.09;4218225;28;5765;-70
2022/07/10 13:11:26;;;;;;;;;;;;;;;28.35;30.28;97148.03;4218715;28;5730;-70
2022/07/10 13:13:29;;;;;;;;;;;;;;;28.34;30.00;97149.16;4218718;28;5198;-70
2022/07/10 13:15:34;;;;;;;;;;;;;;;28.39;30.08;97156.41;4218604;28;5683;-70
2022/07/10 13:17:44;;;;;;;;;;;;;;;28.42;30.09;97151.16;4218396;28;5686;-70
2022/07/10 13:19:47;;;;;;;;;;;;;;;28.45;29.82;97154.41;4218567;28;5755;-71
2022/07/10 13:21:50;;;;;;;;;;;;;;;28.49;30.01;97158.13;4218573;28;5784;-70
2022/07/10 13:23:53;;;;;;;;;;;;;;;28.51;29.85;97154.00;4218285;28;5666;-70
2022/07/10 13:25:56;;;;;;;;;;;;;;;28.52;29.86;97154.81;4218533;28;5679;-70
2022/07/10 13:28:02;;;;;;;;;;;;;;;28.52;30.06;97155.59;4218412;28;5667;-71
2022/07/10 13:30:07;;;;;;;;;;;;;;;28.55;30.08;97154.22;4218295;28;5671;-71
2022/07/10 13:32:10;;;;;;;;;;;;;;;28.58;29.99;97150.91;4218031;28;5671;-71
2022/07/10 13:34:15;;;;;;;;;;;;;;;28.57;29.90;97160.97;4217519;28;5667;-71
2022/07/10 13:36:18;;;;;;;;;;;;;;;28.56;29.90;97150.41;4218075;28;5769;-71
2022/07/10 13:38:23;;;;;;;;;;;;;;;28.47;29.96;97147.56;4218210;28;5684;-70
2022/07/10 13:40:26;;;;;;;;;;;;;;;28.47;29.88;97153.00;4218392;28;5675;-70
2022/07/10 13:42:29;;;;;;;;;;;;;;;28.43;29.99;97154.72;4218176;28;5862;-70
2022/07/10 13:44:33;;;;;;;;;;;;;;;28.38;30.23;97144.72;4218049;28;7209;-70
2022/07/10 13:46:37;;;;;;;;;;;;;;;28.43;30.08;97138.41;4218026;28;5678;-71
2022/07/10 13:48:40;;;;;;;;;;;;;;;28.44;30.15;97148.16;4218037;28;5837;-71
2022/07/10 13:50:46;;;;;;;;;;;;;;;28.49;29.95;97144.53;4218095;28;5671;-70
2022/07/10 13:52:50;;;;;;;;;;;;;;;28.48;30.09;97148.34;4217961;28;5919;-70
2022/07/10 13:54:53;;;;;;;;;;;;;;;28.45;29.90;97147.06;4218007;28;5699;-71
2022/07/10 13:56:56;;;;;;;;;;;;;;;28.46;29.91;97153.31;4218030;28;5682;-70
2022/07/10 13:59:00;;;;;;;;;;;;;;;28.49;29.84;97152.69;4217653;28;5774;-70
2022/07/10 14:01:05;;;;;;;;;;;;;;;28.54;29.86;97142.53;4214766;28;5679;-70
2022/07/10 14:03:09;;;;;;;;;;;;;;;28.54;29.59;97144.44;4213504;28;5779;-70
2022/07/10 14:05:12;;;;;;;;;;;;;;;28.57;29.46;97136.50;4217954;28;5667;-71
2022/07/10 14:07:15;;;;;;;;;;;;;;;28.57;29.52;97147.38;4217867;28;5691;-71
2022/07/10 14:09:19;;;;;;;;;;;;;;;28.60;29.56;97135.09;4216986;28;5741;-71
2022/07/10 14:11:22;;;;;;;;;;;;;;;28.64;29.57;97142.31;4216411;28;5670;-70
2022/07/10 14:13:25;;;;;;;;;;;;;;;28.69;29.47;97133.28;4217737;28;5655;-70
2022/07/10 14:15:28;;;;;;;;;;;;;;;28.75;29.52;97134.78;4217845;28;5766;-70
2022/07/10 14:17:32;;;;;;;;;;;;;;;28.74;29.35;97130.44;4216229;28;5667;-70
2022/07/10 14:19:36;;;;;;;;;;;;;;;28.74;29.19;97135.88;4217463;28;5675;-71
2022/07/10 14:21:40;;;;;;;;;;;;;;;28.76;29.24;97139.09;4217480;28;5779;-70
2022/07/10 14:23:43;;;;;;;;;;;;;;;28.78;29.10;97136.91;4217497;28;6443;-72
2022/07/10 14:25:47;;;;;;;;;;;;;;;28.75;29.21;97132.06;4217652;28;5683;-70
2022/07/10 14:27:50;;;;;;;;;;;;;;;28.71;29.24;97126.41;4217546;28;5668;-70
2022/07/10 14:29:53;;;;;;;;;;;;;;;28.72;29.10;97129.94;4217155;28;5835;-70
2022/07/10 14:31:57;;;;;;;;;;;;;;;28.76;29.25;97127.41;4217324;28;5664;-70
2022/07/10 14:34:02;;;;;;;;;;;;;;;28.78;29.13;97133.38;4216450;28;6348;-71
2022/07/10 14:36:06;;;;;;;;;;;;;;;28.80;29.31;97123.00;4204553;28;5716;-71
2022/07/10 14:38:09;;;;;;;;;;;;;;;28.77;29.12;97124.44;4200575;28;6276;-71
2022/07/10 14:40:12;;;;;;;;;;;;;;;28.84;29.20;97129.44;4200553;28;5776;-71
2022/07/10 14:42:15;;;;;;;;;;;;;;;28.90;28.98;97129.09;4200798;28;5682;-71
2022/07/10 14:44:18;;;;;;;;;;;;;;;28.93;29.30;97127.66;4200709;28;5787;-71
2022/07/10 14:46:21;;;;;;;;;;;;;;;28.93;28.99;97125.75;4198789;28;5870;-70
2022/07/10 14:48:25;;;;;;;;;;;;;;;28.96;28.94;97122.41;4199605;28;5693;-71
2022/07/10 14:50:29;;;;;;;;;;;;;;;28.88;29.12;97125.88;4200307;28;5780;-70
2022/07/10 14:52:33;;;;;;;;;;;;;;;28.88;29.10;97120.41;4200628;28;5786;-71
2022/07/10 14:54:36;;;;;;;;;;;;;;;28.90;28.96;97118.19;4200468;28;5685;-71
2022/07/10 14:56:40;;;;;;;;;;;;;;;28.94;29.04;97121.09;4200763;28;5752;-71
2022/07/10 14:58:43;;;;;;;;;;;;;;;28.97;29.01;97117.78;4200469;28;5685;-71
2022/07/10 15:01:06;;;;;;;;;;;;;;;28.93;29.05;97120.31;4202725;28;5873;-70
2022/07/10 15:03:09;;;;;;;;;;;;;;;28.92;29.22;97120.63;4216720;28;5815;-71
2022/07/10 15:05:12;;;;;;;;;;;;;;;28.93;28.99;97128.47;4217070;28;5777;-71
2022/07/10 15:07:17;;;;;;;;;;;;;;;28.93;29.06;97114.06;4216738;28;5671;-71
2022/07/10 15:09:21;;;;;;;;;;;;;;;28.97;28.98;97123.22;4216706;28;5714;-70
2022/07/10 15:11:25;;;;;;;;;;;;;;;28.97;28.97;97125.94;4216951;28;5663;-71
2022/07/10 15:13:28;;;;;;;;;;;;;;;28.95;28.80;97120.81;4216877;28;5231;-71
2022/07/10 15:15:32;;;;;;;;;;;;;;;28.94;28.88;97119.19;4216905;28;5675;-71
2022/07/10 15:17:35;;;;;;;;;;;;;;;28.93;28.85;97114.88;4216382;28;5672;-71
2022/07/10 15:19:38;;;;;;;;;;;;;;;28.95;28.88;97120.00;4216737;28;5671;-71
2022/07/10 15:21:41;;;;;;;;;;;;;;;28.95;28.83;97118.09;4219008;28;5918;-72
2022/07/10 15:23:45;;;;;;;;;;;;;;;28.94;28.92;97113.75;4220078;28;6328;-71
2022/07/10 15:25:48;;;;;;;;;;;;;;;28.95;28.97;97120.81;4220097;28;5683;-71
2022/07/10 15:27:52;;;;;;;;;;;;;;;28.95;28.87;97114.56;4220217;28;5687;-71
2022/07/10 15:29:55;;;;;;;;;;;;;;;28.96;28.93;97111.53;4218596;28;5683;-70
2022/07/10 15:31:58;;;;;;;;;;;;;;;28.97;29.09;97115.06;4219981;28;5759;-70
2022/07/10 15:34:07;;;;;;;;;;;;;;;28.97;28.71;97113.13;4220280;28;5790;-71
2022/07/10 15:36:11;;;;;;;;;;;;;;;28.98;28.67;97119.38;4220030;28;5726;-71
2022/07/10 15:38:14;;;;;;;;;;;;;;;28.98;28.47;97108.50;4220080;28;5679;-71
2022/07/10 15:40:18;;;;;;;;;;;;;;;28.98;28.40;97114.75;4218818;28;5081;-70
2022/07/10 15:42:22;;;;;;;;;;;;;;;28.98;28.21;97109.31;4220446;28;6345;-69
2022/07/10 15:44:25;;;;;;;;;;;;;;;29.00;28.26;97117.19;4220264;28;5683;-70
2022/07/10 15:46:28;;;;;;;;;;;;;;;29.01;27.96;97115.28;4219787;28;5668;-70
2022/07/10 15:48:31;;;;;;;;;;;;;;;29.01;28.18;97104.38;4220181;28;5678;-70
2022/07/10 15:50:34;;;;;;;;;;;;;;;29.00;28.11;97111.75;4220459;28;5679;-70
2022/07/10 15:52:37;;;;;;;;;;;;;;;28.98;28.12;97114.75;4219952;28;5715;-70
2022/07/10 15:54:41;;;;;;;;;;;;;;;28.96;28.08;97108.81;4220214;28;5671;-70
2022/07/10 15:56:45;;;;;;;;;;;;;;;28.95;27.86;97115.38;4219880;28;5683;-70
2022/07/10 15:58:48;;;;;;;;;;;;;;;28.96;28.09;97114.25;4219881;28;5691;-71
2022/07/10 16:00:51;;;;;;;;;;;;;;;28.95;28.28;97115.38;4216409;28;5738;-70
2022/07/10 16:02:54;;;;;;;;;;;;;;;28.96;27.88;97110.72;4217315;28;5812;-70
2022/07/10 16:04:59;;;;;;;;;;;;;;;28.96;28.16;97116.97;4203162;28;5716;-71
2022/07/10 16:07:02;;;;;;;;;;;;;;;28.97;28.09;97113.13;4203058;28;5713;-71
2022/07/10 16:09:06;;;;;;;;;;;;;;;28.94;28.25;97132.00;4202715;28;5693;-70
2022/07/10 16:11:17;;;;;;;;;;;;;;;28.90;28.38;97123.66;4201579;28;5704;-70
2022/07/10 16:13:22;;;;;;;;;;;;;;;28.88;28.34;97120.41;4202875;28;5760;-71
2022/07/10 16:15:24;;;;;;;;;;;;;;;28.86;28.41;97111.69;4202875;28;7706;-71
2022/07/10 16:17:28;;;;;;;;;;;;;;;28.87;28.43;97112.50;4201167;28;5721;-72
2022/07/10 16:19:30;;;;;;;;;;;;;;;28.84;28.46;97108.47;4201513;28;6461;-71
2022/07/10 16:21:34;;;;;;;;;;;;;;;28.81;28.82;97106.38;4201445;28;5803;-72
2022/07/10 16:23:37;;;;;;;;;;;;;;;28.80;28.77;97102.03;4202873;28;5705;-72
2022/07/10 16:26:00;;;;;;;;;;;;;;;28.80;28.90;97093.88;4202880;28;5733;-72
2022/07/10 16:28:04;;;;;;;;;;;;;;;28.82;28.94;97102.53;4201328;28;5700;-72
2022/07/10 16:30:09;;;;;;;;;;;;;;;28.81;29.15;97114.53;4202391;28;5686;-72
2022/07/10 16:32:12;;;;;;;;;;;;;;;28.78;29.34;97101.56;4202054;28;5861;-72
2022/07/10 16:34:15;;;;;;;;;;;;;;;28.77;29.56;97096.38;4202784;28;5800;-71
2022/07/10 16:36:18;;;;;;;;;;;;;;;28.75;29.60;97098.59;4202421;28;5697;-71
2022/07/10 16:38:21;;;;;;;;;;;;;;;28.72;29.64;97100.03;4201277;28;5906;-71
2022/07/10 16:40:24;;;;;;;;;;;;;;;28.72;29.58;97083.69;4202695;28;5776;-73
2022/07/10 16:42:27;;;;;;;;;;;;;;;28.71;29.61;97088.34;4202539;28;5681;-73
2022/07/10 16:44:30;;;;;;;;;;;;;;;28.72;29.79;97089.13;4202531;28;5701;-73
2022/07/10 16:46:34;;;;;;;;;;;;;;;28.71;29.97;97092.97;4201064;28;5700;-71
2022/07/10 16:48:37;;;;;;;;;;;;;;;28.68;29.83;97085.44;4202498;28;5785;-71
2022/07/10 16:50:40;;;;;;;;;;;;;;;28.67;29.90;97083.81;4202355;28;5693;-71
2022/07/10 16:52:43;;;;;;;;;;;;;;;28.65;30.00;97091.44;4202208;28;5701;-71
2022/07/10 16:54:46;;;;;;;;;;;;;;;28.64;30.20;97081.69;4201041;28;5716;-70
2022/07/10 16:56:49;;;;;;;;;;;;;;;28.65;30.17;97083.28;4202247;28;5689;-71
2022/07/10 16:58:52;;;;;;;;;;;;;;;28.63;30.24;97090.94;4200534;28;6553;-70
2022/07/10 17:00:55;;;;;;;;;;;;;;;28.64;30.23;97092.56;4201648;28;5693;-70
2022/07/10 17:02:59;;;;;;;;;;;;;;;28.60;30.40;97086.94;4212760;28;5763;-70
2022/07/10 17:05:02;;;;;;;;;;;;;;;28.60;30.31;97081.50;4201775;28;5745;-72
2022/07/10 17:07:07;;;;;;;;;;;;;;;28.60;30.34;97083.41;4217827;28;5117;-71
2022/07/10 17:09:11;;;;;;;;;;;;;;;28.59;30.37;97085.31;4218446;28;6344;-71
2022/07/10 17:11:19;;;;;;;;;;;;;;;28.58;30.61;97080.19;4218562;28;5771;-72
2022/07/10 17:13:22;;;;;;;;;;;;;;;28.55;30.72;97088.94;4217573;28;5750;-72
2022/07/10 17:15:25;;;;;;;;;;;;;;;28.52;30.62;97093.06;4218565;28;5699;-71
2022/07/10 17:17:28;;;;;;;;;;;;;;;28.50;30.64;97075.44;4218482;28;5762;-70
2022/07/10 17:19:33;;;;;;;;;;;;;;;28.48;30.57;97085.81;4218411;28;5683;-70
2022/07/10 17:21:35;;;;;;;;;;;;;;;28.44;30.76;97076.66;4218550;28;5679;-70
2022/07/10 17:23:58;;;;;;;;;;;;;;;28.37;30.59;97077.84;4218738;28;5891;-72
2022/07/10 17:26:01;;;;;;;;;;;;;;;28.37;30.79;97083.28;4218742;28;5675;-72
2022/07/10 17:28:05;;;;;;;;;;;;;;;28.35;30.73;97085.50;4218432;28;5668;-72
2022/07/10 17:30:09;;;;;;;;;;;;;;;28.35;30.64;97081.97;4217026;28;5774;-72
2022/07/10 17:32:12;;;;;;;;;;;;;;;28.35;30.91;97071.09;4217991;28;5743;-72
2022/07/10 17:34:16;;;;;;;;;;;;;;;28.37;30.77;97077.03;4218778;28;6333;-72
2022/07/10 17:36:20;;;;;;;;;;;;;;;28.38;30.82;97084.91;4207484;28;5685;-71
2022/07/10 17:38:25;;;;;;;;;;;;;;;28.40;30.86;97076.44;4201671;28;5688;-72
2022/07/10 17:40:28;;;;;;;;;;;;;;;28.40;30.87;97081.88;4201432;28;5870;-72
2022/07/10 17:42:31;;;;;;;;;;;;;;;28.42;30.81;97085.91;4201596;28;5701;-72
2022/07/10 17:44:34;;;;;;;;;;;;;;;28.42;30.73;97088.63;4200566;28;5981;-72
2022/07/10 17:46:37;;;;;;;;;;;;;;;28.42;30.75;97090.53;4201305;28;5734;-71
2022/07/10 17:48:40;;;;;;;;;;;;;;;28.40;30.73;97090.03;4201352;28;5787;-71
2022/07/10 17:50:43;;;;;;;;;;;;;;;28.38;30.69;97093.06;4201505;28;5696;-72
2022/07/10 17:52:47;;;;;;;;;;;;;;;28.37;30.63;97094.16;4201085;28;5725;-71
2022/07/10 17:54:50;;;;;;;;;;;;;;;28.37;30.58;97077.03;4199764;28;5720;-71
2022/07/10 17:56:53;;;;;;;;;;;;;;;28.41;30.40;97083.47;4201097;28;5749;-70
2022/07/10 17:58:56;;;;;;;;;;;;;;;28.41;30.63;97081.56;4200849;28;5689;-70
2022/07/10 18:01:03;;;;;;;;;;;;;;;28.39;30.66;97086.50;4200896;28;5692;-70
2022/07/10 18:03:06;;;;;;;;;;;;;;;28.38;30.37;97082.19;4215701;28;5777;-70
2022/07/10 18:05:12;;;;;;;;;;;;;;;28.34;30.76;97089.34;4216843;28;5666;-71
2022/07/10 18:07:16;;;;;;;;;;;;;;;28.31;30.51;97083.66;4217730;28;5879;-71
2022/07/10 18:09:20;;;;;;;;;;;;;;;28.31;30.67;97084.47;4217703;28;5671;-71
2022/07/10 18:11:23;;;;;;;;;;;;;;;28.33;30.58;97084.19;4217699;28;5683;-71
2022/07/10 18:13:26;;;;;;;;;;;;;;;28.34;30.80;97083.91;4217869;28;5775;-71
2022/07/10 18:15:29;;;;;;;;;;;;;;;28.34;30.69;97086.63;4217876;28;5671;-71
2022/07/10 18:17:32;;;;;;;;;;;;;;;28.32;30.58;97086.13;4217489;28;5803;-71
2022/07/10 18:19:35;;;;;;;;;;;;;;;28.32;30.72;97083.41;4205191;28;5790;-71